sensor_id;sensor_type;location;lat;lon;timestamp;pressure;altitude;pressure_sealevel;temperature;humidity
68376;BME280;55318;52.068;5.188;2023-04-26T00:00:44;101998.0;;;4.37;89.63
68376;BME280;55318;52.068;5.188;2023-04-26T00:02:20;101994.0;;;4.32;89.65
68376;BME280;55318;52.068;5.188;2023-04-26T00:05:32;101994.0;;;4.28;89.86
68376;BME280;55318;52.068;5.188;2023-04-26T00:07:08;101994.0;;;4.2;89.33
68376;BME280;55318;52.068;5.188;2023-04-26T00:08:44;101995.0;;;4.16;89.33
68376;BME280;55318;52.068;5.188;2023-04-26T00:11:57;101992.0;;;4.16;89.73
68376;BME280;55318;52.068;5.188;2023-04-26T00:13:34;101993.0;;;4.12;89.76
68376;BME280;55318;52.068;5.188;2023-04-26T00:15:10;101994.0;;;4.07;89.73
68376;BME280;55318;52.068;5.188;2023-04-26T00:16:46;101993.0;;;4.05;90.79
68376;BME280;55318;52.068;5.188;2023-04-26T00:19:59;101989.0;;;4.03;90.31
68376;BME280;55318;52.068;5.188;2023-04-26T00:21:35;101994.0;;;3.95;90.18
68376;BME280;55318;52.068;5.188;2023-04-26T00:23:12;101992.0;;;3.86;90.38
68376;BME280;55318;52.068;5.188;2023-04-26T00:26:24;101995.0;;;3.86;90.56
68376;BME280;55318;52.068;5.188;2023-04-26T00:28:00;101993.0;;;3.81;90.23
68376;BME280;55318;52.068;5.188;2023-04-26T00:29:36;101991.0;;;3.8;90.18
68376;BME280;55318;52.068;5.188;2023-04-26T00:32:49;101996.0;;;3.81;90.33
68376;BME280;55318;52.068;5.188;2023-04-26T00:34:30;101993.0;;;3.74;90.28
68376;BME280;55318;52.068;5.188;2023-04-26T00:36:07;101992.0;;;3.72;90.35
68376;BME280;55318;52.068;5.188;2023-04-26T00:37:43;101995.0;;;3.68;90.74
68376;BME280;55318;52.068;5.188;2023-04-26T00:40:55;101997.0;;;3.62;90.75
68376;BME280;55318;52.068;5.188;2023-04-26T00:42:31;101994.0;;;3.54;90.76
68376;BME280;55318;52.068;5.188;2023-04-26T00:44:07;101993.0;;;3.55;91.18
68376;BME280;55318;52.068;5.188;2023-04-26T00:47:20;101995.0;;;3.53;91.29
68376;BME280;55318;52.068;5.188;2023-04-26T00:48:56;101994.0;;;3.51;91.61
68376;BME280;55318;52.068;5.188;2023-04-26T00:50:33;101991.0;;;3.5;91.76
68376;BME280;55318;52.068;5.188;2023-04-26T00:53:46;101992.0;;;3.49;91.9
68376;BME280;55318;52.068;5.188;2023-04-26T00:55:22;101990.0;;;3.47;91.88
68376;BME280;55318;52.068;5.188;2023-04-26T00:56:59;101989.0;;;3.46;91.62
68376;BME280;55318;52.068;5.188;2023-04-26T00:58:37;101989.0;;;3.44;91.63
68376;BME280;55318;52.068;5.188;2023-04-26T01:01:50;101989.0;;;3.43;91.62
68376;BME280;55318;52.068;5.188;2023-04-26T01:03:26;101992.0;;;3.43;91.97
68376;BME280;55318;52.068;5.188;2023-04-26T01:05:03;101992.0;;;3.35;91.68
68376;BME280;55318;52.068;5.188;2023-04-26T01:08:17;101994.0;;;3.33;91.92
68376;BME280;55318;52.068;5.188;2023-04-26T01:09:54;101991.0;;;3.29;91.66
68376;BME280;55318;52.068;5.188;2023-04-26T01:14:45;101993.0;;;3.19;91.75
68376;BME280;55318;52.068;5.188;2023-04-26T01:16:22;101992.0;;;3.16;92.22
68376;BME280;55318;52.068;5.188;2023-04-26T01:17:58;101995.0;;;3.13;92.18
68376;BME280;55318;52.068;5.188;2023-04-26T01:19:34;101995.0;;;3.13;92.17
68376;BME280;55318;52.068;5.188;2023-04-26T01:22:47;101998.0;;;3.13;92.19
68376;BME280;55318;52.068;5.188;2023-04-26T01:24:23;101994.0;;;3.08;92.3
68376;BME280;55318;52.068;5.188;2023-04-26T01:25:59;101994.0;;;3.06;92.35
68376;BME280;55318;52.068;5.188;2023-04-26T01:29:13;101992.0;;;3.04;92.22
68376;BME280;55318;52.068;5.188;2023-04-26T01:30:50;101998.0;;;3.09;92.6
68376;BME280;55318;52.068;5.188;2023-04-26T01:32:26;101998.0;;;3.07;92.6
68376;BME280;55318;52.068;5.188;2023-04-26T01:35:38;101994.0;;;3.02;92.47
68376;BME280;55318;52.068;5.188;2023-04-26T01:37:15;102000.0;;;3.0;92.85
68376;BME280;55318;52.068;5.188;2023-04-26T01:38:51;102000.0;;;3.0;93.15
68376;BME280;55318;52.068;5.188;2023-04-26T01:40:27;102003.0;;;3.08;93.11
68376;BME280;55318;52.068;5.188;2023-04-26T01:43:40;102003.0;;;3.16;92.9
68376;BME280;55318;52.068;5.188;2023-04-26T01:45:16;101997.0;;;3.19;92.61
68376;BME280;55318;52.068;5.188;2023-04-26T01:46:52;101993.0;;;3.07;92.95
68376;BME280;55318;52.068;5.188;2023-04-26T01:50:06;101991.0;;;3.03;92.83
68376;BME280;55318;52.068;5.188;2023-04-26T01:51:42;101987.0;;;2.97;92.64
68376;BME280;55318;52.068;5.188;2023-04-26T01:53:18;101988.0;;;2.98;92.51
68376;BME280;55318;52.068;5.188;2023-04-26T01:56:31;101986.0;;;2.95;93.0
68376;BME280;55318;52.068;5.188;2023-04-26T01:58:07;101985.0;;;2.92;92.67
68376;BME280;55318;52.068;5.188;2023-04-26T01:59:43;101988.0;;;2.9;92.71
68376;BME280;55318;52.068;5.188;2023-04-26T02:02:56;101987.0;;;2.86;92.72
68376;BME280;55318;52.068;5.188;2023-04-26T02:04:33;101989.0;;;2.89;92.81
68376;BME280;55318;52.068;5.188;2023-04-26T02:06:10;101989.0;;;2.91;92.96
68376;BME280;55318;52.068;5.188;2023-04-26T02:07:46;101986.0;;;2.89;92.8
68376;BME280;55318;52.068;5.188;2023-04-26T02:10:58;101988.0;;;2.86;93.3
68376;BME280;55318;52.068;5.188;2023-04-26T02:12:34;101987.0;;;2.84;93.43
68376;BME280;55318;52.068;5.188;2023-04-26T02:14:11;101991.0;;;2.85;93.72
68376;BME280;55318;52.068;5.188;2023-04-26T02:17:26;101993.0;;;2.85;93.55
68376;BME280;55318;52.068;5.188;2023-04-26T02:19:02;101990.0;;;2.83;93.44
68376;BME280;55318;52.068;5.188;2023-04-26T02:20:39;101986.0;;;2.82;93.25
68376;BME280;55318;52.068;5.188;2023-04-26T02:23:51;101984.0;;;2.8;93.26
68376;BME280;55318;52.068;5.188;2023-04-26T02:25:27;101989.0;;;2.74;93.18
68376;BME280;55318;52.068;5.188;2023-04-26T02:27:04;101991.0;;;2.69;93.04
68376;BME280;55318;52.068;5.188;2023-04-26T02:28:40;101992.0;;;2.7;93.42
68376;BME280;55318;52.068;5.188;2023-04-26T02:31:53;101992.0;;;2.62;93.5
68376;BME280;55318;52.068;5.188;2023-04-26T02:33:29;101994.0;;;2.61;93.67
68376;BME280;55318;52.068;5.188;2023-04-26T02:35:06;101991.0;;;2.6;94.01
68376;BME280;55318;52.068;5.188;2023-04-26T02:38:18;101993.0;;;2.61;93.96
68376;BME280;55318;52.068;5.188;2023-04-26T02:39:54;101994.0;;;2.58;93.78
68376;BME280;55318;52.068;5.188;2023-04-26T02:41:31;101991.0;;;2.58;93.51
68376;BME280;55318;52.068;5.188;2023-04-26T02:44:45;101991.0;;;2.58;93.37
68376;BME280;55318;52.068;5.188;2023-04-26T02:46:21;101987.0;;;2.59;93.5
68376;BME280;55318;52.068;5.188;2023-04-26T02:47:59;101989.0;;;2.57;93.6
68376;BME280;55318;52.068;5.188;2023-04-26T02:49:35;101989.0;;;2.56;93.57
68376;BME280;55318;52.068;5.188;2023-04-26T02:52:47;101991.0;;;2.57;94.03
68376;BME280;55318;52.068;5.188;2023-04-26T02:54:23;101987.0;;;2.58;94.2
68376;BME280;55318;52.068;5.188;2023-04-26T02:56:00;101988.0;;;2.54;93.53
68376;BME280;55318;52.068;5.188;2023-04-26T02:59:12;101982.0;;;2.52;93.89
68376;BME280;55318;52.068;5.188;2023-04-26T03:00:48;101980.0;;;2.57;93.81
68376;BME280;55318;52.068;5.188;2023-04-26T03:02:24;101981.0;;;2.57;93.54
68376;BME280;55318;52.068;5.188;2023-04-26T03:05:36;101982.0;;;2.54;93.35
68376;BME280;55318;52.068;5.188;2023-04-26T03:07:13;101980.0;;;2.52;93.46
68376;BME280;55318;52.068;5.188;2023-04-26T03:08:50;101981.0;;;2.52;93.32
68376;BME280;55318;52.068;5.188;2023-04-26T03:10:26;101980.0;;;2.52;93.38
68376;BME280;55318;52.068;5.188;2023-04-26T03:13:38;101976.0;;;2.48;93.39
68376;BME280;55318;52.068;5.188;2023-04-26T03:15:14;101977.0;;;2.46;93.39
68376;BME280;55318;52.068;5.188;2023-04-26T03:16:50;101980.0;;;2.42;93.32
68376;BME280;55318;52.068;5.188;2023-04-26T03:20:03;101981.0;;;2.44;93.54
68376;BME280;55318;52.068;5.188;2023-04-26T03:21:40;101978.0;;;2.46;94.14
68376;BME280;55318;52.068;5.188;2023-04-26T03:23:16;101978.0;;;2.46;94.17
68376;BME280;55318;52.068;5.188;2023-04-26T03:26:28;101977.0;;;2.44;93.75
68376;BME280;55318;52.068;5.188;2023-04-26T03:28:04;101978.0;;;2.46;93.51
68376;BME280;55318;52.068;5.188;2023-04-26T03:29:40;101975.0;;;2.46;93.23
68376;BME280;55318;52.068;5.188;2023-04-26T03:32:53;101971.0;;;2.44;93.33
68376;BME280;55318;52.068;5.188;2023-04-26T03:34:29;101968.0;;;2.41;93.16
68376;BME280;55318;52.068;5.188;2023-04-26T03:36:06;101970.0;;;2.37;93.45
68376;BME280;55318;52.068;5.188;2023-04-26T03:37:42;101968.0;;;2.35;93.44
68376;BME280;55318;52.068;5.188;2023-04-26T03:40:55;101967.0;;;2.31;93.46
68376;BME280;55318;52.068;5.188;2023-04-26T03:42:31;101967.0;;;2.33;93.88
68376;BME280;55318;52.068;5.188;2023-04-26T03:44:07;101969.0;;;2.34;93.6
68376;BME280;55318;52.068;5.188;2023-04-26T03:47:21;101963.0;;;2.31;93.57
68376;BME280;55318;52.068;5.188;2023-04-26T03:48:58;101963.0;;;2.31;94.2
68376;BME280;55318;52.068;5.188;2023-04-26T03:50:34;101966.0;;;2.31;93.8
68376;BME280;55318;52.068;5.188;2023-04-26T03:53:46;101968.0;;;2.31;94.33
68376;BME280;55318;52.068;5.188;2023-04-26T03:55:22;101971.0;;;2.31;94.25
68376;BME280;55318;52.068;5.188;2023-04-26T03:56:58;101971.0;;;2.29;94.17
68376;BME280;55318;52.068;5.188;2023-04-26T03:58:34;101971.0;;;2.31;94.52
68376;BME280;55318;52.068;5.188;2023-04-26T04:01:48;101976.0;;;2.36;94.89
68376;BME280;55318;52.068;5.188;2023-04-26T04:03:24;101976.0;;;2.39;94.89
68376;BME280;55318;52.068;5.188;2023-04-26T04:05:00;101973.0;;;2.4;94.96
68376;BME280;55318;52.068;5.188;2023-04-26T04:08:12;101972.0;;;2.44;94.96
68376;BME280;55318;52.068;5.188;2023-04-26T04:09:48;101969.0;;;2.46;94.76
68376;BME280;55318;52.068;5.188;2023-04-26T04:11:24;101964.0;;;2.42;94.68
68376;BME280;55318;52.068;5.188;2023-04-26T04:14:37;101966.0;;;2.46;94.5
68376;BME280;55318;52.068;5.188;2023-04-26T04:16:13;101966.0;;;2.48;94.5
68376;BME280;55318;52.068;5.188;2023-04-26T04:17:49;101967.0;;;2.44;94.37
68376;BME280;55318;52.068;5.188;2023-04-26T04:19:25;101965.0;;;2.5;94.43
68376;BME280;55318;52.068;5.188;2023-04-26T04:22:38;101965.0;;;2.44;94.41
68376;BME280;55318;52.068;5.188;2023-04-26T04:24:15;101962.0;;;2.44;94.38
68376;BME280;55318;52.068;5.188;2023-04-26T04:25:50;101960.0;;;2.4;94.35
68376;BME280;55318;52.068;5.188;2023-04-26T04:29:03;101957.0;;;2.44;94.38
68376;BME280;55318;52.068;5.188;2023-04-26T04:30:39;101965.0;;;2.44;94.33
68376;BME280;55318;52.068;5.188;2023-04-26T04:32:16;101968.0;;;2.42;94.3
68376;BME280;55318;52.068;5.188;2023-04-26T04:37:07;101965.0;;;2.56;94.56
68376;BME280;55318;52.068;5.188;2023-04-26T04:38:42;101968.0;;;2.59;94.28
68376;BME280;55318;52.068;5.188;2023-04-26T04:41:55;101969.0;;;2.63;94.36
68376;BME280;55318;52.068;5.188;2023-04-26T04:43:31;101969.0;;;2.58;94.43
68376;BME280;55318;52.068;5.188;2023-04-26T04:45:08;101974.0;;;2.58;94.68
68376;BME280;55318;52.068;5.188;2023-04-26T04:46:44;101968.0;;;2.57;94.76
68376;BME280;55318;52.068;5.188;2023-04-26T04:51:32;101973.0;;;2.64;95.3
68376;BME280;55318;52.068;5.188;2023-04-26T04:53:09;101978.0;;;2.67;95.58
68376;BME280;55318;52.068;5.188;2023-04-26T04:56:21;101976.0;;;2.69;95.52
68376;BME280;55318;52.068;5.188;2023-04-26T04:57:57;101974.0;;;2.74;95.76
68376;BME280;55318;52.068;5.188;2023-04-26T04:59:33;101974.0;;;2.81;95.64
68376;BME280;55318;52.068;5.188;2023-04-26T05:02:45;101977.0;;;2.9;95.64
68376;BME280;55318;52.068;5.188;2023-04-26T05:04:21;101983.0;;;3.01;95.75
68376;BME280;55318;52.068;5.188;2023-04-26T05:05:58;101988.0;;;3.11;96.44
68376;BME280;55318;52.068;5.188;2023-04-26T05:07:34;101986.0;;;3.12;96.59
68376;BME280;55318;52.068;5.188;2023-04-26T05:10:47;101981.0;;;3.26;96.26
68376;BME280;55318;52.068;5.188;2023-04-26T05:12:23;101984.0;;;3.36;96.28
68376;BME280;55318;52.068;5.188;2023-04-26T05:13:59;101987.0;;;3.49;96.48
68376;BME280;55318;52.068;5.188;2023-04-26T05:17:11;101987.0;;;3.65;96.39
68376;BME280;55318;52.068;5.188;2023-04-26T05:18:47;101985.0;;;3.86;95.7
68376;BME280;55318;52.068;5.188;2023-04-26T05:20:24;101986.0;;;4.0;95.79
68376;BME280;55318;52.068;5.188;2023-04-26T05:23:38;101988.0;;;4.09;96.46
68376;BME280;55318;52.068;5.188;2023-04-26T05:25:14;101987.0;;;4.28;96.69
68376;BME280;55318;52.068;5.188;2023-04-26T05:26:50;101986.0;;;4.46;96.31
68376;BME280;55318;52.068;5.188;2023-04-26T05:30:03;101982.0;;;4.63;95.57
68376;BME280;55318;52.068;5.188;2023-04-26T05:31:39;101982.0;;;4.78;96.18
68376;BME280;55318;52.068;5.188;2023-04-26T05:33:15;101983.0;;;4.91;96.32
68376;BME280;55318;52.068;5.188;2023-04-26T05:34:51;101984.0;;;5.16;95.44
68376;BME280;55318;52.068;5.188;2023-04-26T05:38:04;101980.0;;;5.32;95.34
68376;BME280;55318;52.068;5.188;2023-04-26T05:39:40;101981.0;;;5.49;94.7
68376;BME280;55318;52.068;5.188;2023-04-26T05:44:28;101989.0;;;5.77;94.26
68376;BME280;55318;52.068;5.188;2023-04-26T05:46:05;101993.0;;;5.92;94.27
68376;BME280;55318;52.068;5.188;2023-04-26T05:47:41;101991.0;;;6.07;93.63
68376;BME280;55318;52.068;5.188;2023-04-26T05:50:53;101991.0;;;6.23;92.33
68376;BME280;55318;52.068;5.188;2023-04-26T05:52:29;101997.0;;;6.37;91.52
68376;BME280;55318;52.068;5.188;2023-04-26T05:54:05;101996.0;;;6.48;90.77
68376;BME280;55318;52.068;5.188;2023-04-26T05:55:41;101995.0;;;6.61;89.76
68376;BME280;55318;52.068;5.188;2023-04-26T05:58:54;101994.0;;;6.81;88.9
68376;BME280;55318;52.068;5.188;2023-04-26T06:00:30;101995.0;;;6.89;88.25
68376;BME280;55318;52.068;5.188;2023-04-26T06:02:06;102000.0;;;7.11;87.1
68376;BME280;55318;52.068;5.188;2023-04-26T06:05:20;102001.0;;;7.04;87.66
68376;BME280;55318;52.068;5.188;2023-04-26T06:06:56;102000.0;;;7.05;87.63
68376;BME280;55318;52.068;5.188;2023-04-26T06:08:33;101991.0;;;7.16;85.97
68376;BME280;55318;52.068;5.188;2023-04-26T06:11:46;101991.0;;;7.26;85.76
68376;BME280;55318;52.068;5.188;2023-04-26T06:13:22;101992.0;;;7.27;84.78
68376;BME280;55318;52.068;5.188;2023-04-26T06:14:58;101994.0;;;7.3;86.78
68376;BME280;55318;52.068;5.188;2023-04-26T06:16:34;101994.0;;;7.42;84.45
68376;BME280;55318;52.068;5.188;2023-04-26T06:19:46;101996.0;;;7.37;84.69
68376;BME280;55318;52.068;5.188;2023-04-26T06:21:23;102000.0;;;7.42;85.06
68376;BME280;55318;52.068;5.188;2023-04-26T06:22:59;102003.0;;;7.68;84.32
68376;BME280;55318;52.068;5.188;2023-04-26T06:26:12;102012.0;;;7.89;83.09
68376;BME280;55318;52.068;5.188;2023-04-26T06:27:48;102015.0;;;8.03;81.61
68376;BME280;55318;52.068;5.188;2023-04-26T06:29:24;102009.0;;;8.26;85.08
68376;BME280;55318;52.068;5.188;2023-04-26T06:32:37;102009.0;;;8.56;82.37
68376;BME280;55318;52.068;5.188;2023-04-26T06:34:13;102012.0;;;8.69;79.66
68376;BME280;55318;52.068;5.188;2023-04-26T06:35:50;102018.0;;;8.55;77.55
68376;BME280;55318;52.068;5.188;2023-04-26T06:39:03;102012.0;;;8.69;76.58
68376;BME280;55318;52.068;5.188;2023-04-26T06:40:39;102014.0;;;8.75;75.39
68376;BME280;55318;52.068;5.188;2023-04-26T06:42:15;102016.0;;;8.75;74.39
68376;BME280;55318;52.068;5.188;2023-04-26T06:43:51;102020.0;;;8.76;74.05
68376;BME280;55318;52.068;5.188;2023-04-26T06:47:04;102018.0;;;8.81;72.8
68376;BME280;55318;52.068;5.188;2023-04-26T06:48:41;102024.0;;;8.61;74.83
68376;BME280;55318;52.068;5.188;2023-04-26T06:50:18;102022.0;;;8.72;73.73
68376;BME280;55318;52.068;5.188;2023-04-26T06:53:30;102026.0;;;8.63;73.41
68376;BME280;55318;52.068;5.188;2023-04-26T06:55:07;102020.0;;;8.57;74.8
68376;BME280;55318;52.068;5.188;2023-04-26T06:56:43;102019.0;;;8.56;76.06
68376;BME280;55318;52.068;5.188;2023-04-26T06:59:56;102020.0;;;8.6;75.8
68376;BME280;55318;52.068;5.188;2023-04-26T07:01:33;102022.0;;;8.65;75.13
68376;BME280;55318;52.068;5.188;2023-04-26T07:03:10;102025.0;;;8.57;76.27
68376;BME280;55318;52.068;5.188;2023-04-26T07:04:46;102024.0;;;8.56;74.48
68376;BME280;55318;52.068;5.188;2023-04-26T07:08:00;102021.0;;;8.48;78.36
68376;BME280;55318;52.068;5.188;2023-04-26T07:09:36;102024.0;;;8.51;78.91
68376;BME280;55318;52.068;5.188;2023-04-26T07:11:12;102019.0;;;8.61;76.27
68376;BME280;55318;52.068;5.188;2023-04-26T07:14:25;102020.0;;;8.58;75.55
68376;BME280;55318;52.068;5.188;2023-04-26T07:16:01;102015.0;;;8.74;73.36
68376;BME280;55318;52.068;5.188;2023-04-26T07:17:37;102018.0;;;8.71;72.62
68376;BME280;55318;52.068;5.188;2023-04-26T07:20:48;102015.0;;;8.83;73.55
68376;BME280;55318;52.068;5.188;2023-04-26T07:22:24;102016.0;;;8.96;73.52
68376;BME280;55318;52.068;5.188;2023-04-26T07:24:00;102016.0;;;9.01;74.36
68376;BME280;55318;52.068;5.188;2023-04-26T07:25:36;102016.0;;;9.17;70.91
68376;BME280;55318;52.068;5.188;2023-04-26T07:28:49;102019.0;;;9.19;71.3
68376;BME280;55318;52.068;5.188;2023-04-26T07:30:26;102019.0;;;9.26;72.02
68376;BME280;55318;52.068;5.188;2023-04-26T07:32:02;102018.0;;;9.31;68.59
68376;BME280;55318;52.068;5.188;2023-04-26T07:35:14;102019.0;;;9.47;70.72
68376;BME280;55318;52.068;5.188;2023-04-26T07:36:51;102021.0;;;9.64;69.8
68376;BME280;55318;52.068;5.188;2023-04-26T07:38:26;102025.0;;;9.93;68.25
68376;BME280;55318;52.068;5.188;2023-04-26T07:41:40;102025.0;;;10.23;66.41
68376;BME280;55318;52.068;5.188;2023-04-26T07:43:16;102025.0;;;10.35;66.02
68376;BME280;55318;52.068;5.188;2023-04-26T07:44:53;102027.0;;;10.29;68.27
68376;BME280;55318;52.068;5.188;2023-04-26T07:48:07;102030.0;;;10.41;64.86
68376;BME280;55318;52.068;5.188;2023-04-26T07:49:43;102030.0;;;10.54;64.67
68376;BME280;55318;52.068;5.188;2023-04-26T07:51:20;102033.0;;;10.49;62.75
68376;BME280;55318;52.068;5.188;2023-04-26T07:52:56;102030.0;;;10.52;62.68
68376;BME280;55318;52.068;5.188;2023-04-26T07:56:08;102035.0;;;10.69;62.12
68376;BME280;55318;52.068;5.188;2023-04-26T07:57:44;102031.0;;;10.78;60.59
68376;BME280;55318;52.068;5.188;2023-04-26T07:59:20;102035.0;;;10.86;61.2
68376;BME280;55318;52.068;5.188;2023-04-26T08:02:32;102036.0;;;10.91;61.66
68376;BME280;55318;52.068;5.188;2023-04-26T08:04:09;102036.0;;;10.96;59.91
68376;BME280;55318;52.068;5.188;2023-04-26T08:05:45;102037.0;;;10.81;59.3
68376;BME280;55318;52.068;5.188;2023-04-26T08:08:57;102035.0;;;10.8;60.41
68376;BME280;55318;52.068;5.188;2023-04-26T08:10:33;102040.0;;;10.87;63.68
68376;BME280;55318;52.068;5.188;2023-04-26T08:12:10;102037.0;;;10.55;61.11
68376;BME280;55318;52.068;5.188;2023-04-26T08:13:46;102039.0;;;10.69;61.02
68376;BME280;55318;52.068;5.188;2023-04-26T08:16:58;102040.0;;;10.53;60.79
68376;BME280;55318;52.068;5.188;2023-04-26T08:18:36;102037.0;;;10.56;60.39
68376;BME280;55318;52.068;5.188;2023-04-26T08:20:12;102035.0;;;10.47;62.18
68376;BME280;55318;52.068;5.188;2023-04-26T08:23:24;102038.0;;;10.61;64.77
68376;BME280;55318;52.068;5.188;2023-04-26T08:25:00;102035.0;;;10.53;60.65
68376;BME280;55318;52.068;5.188;2023-04-26T08:26:36;102033.0;;;10.61;60.23
68376;BME280;55318;52.068;5.188;2023-04-26T08:29:49;102033.0;;;10.33;60.54
68376;BME280;55318;52.068;5.188;2023-04-26T08:31:25;102037.0;;;10.1;61.87
68376;BME280;55318;52.068;5.188;2023-04-26T08:33:02;102035.0;;;10.23;61.84
68376;BME280;55318;52.068;5.188;2023-04-26T08:36:14;102038.0;;;10.23;61.95
68376;BME280;55318;52.068;5.188;2023-04-26T08:37:50;102039.0;;;10.06;65.61
68376;BME280;55318;52.068;5.188;2023-04-26T08:39:27;102041.0;;;10.11;62.05
68376;BME280;55318;52.068;5.188;2023-04-26T08:41:04;102044.0;;;10.0;64.13
68376;BME280;55318;52.068;5.188;2023-04-26T08:44:21;102046.0;;;9.97;61.42
68376;BME280;55318;52.068;5.188;2023-04-26T08:45:58;102044.0;;;9.84;62.89
68376;BME280;55318;52.068;5.188;2023-04-26T08:47:39;102049.0;;;10.01;63.01
68376;BME280;55318;52.068;5.188;2023-04-26T08:49:24;102048.0;;;9.8;65.67
68376;BME280;55318;52.068;5.188;2023-04-26T08:52:50;102044.0;;;9.67;66.48
68376;BME280;55318;52.068;5.188;2023-04-26T08:54:27;102044.0;;;9.78;65.06
68376;BME280;55318;52.068;5.188;2023-04-26T08:56:03;102039.0;;;9.6;67.47
68376;BME280;55318;52.068;5.188;2023-04-26T08:57:41;102041.0;;;9.47;67.45
68376;BME280;55318;52.068;5.188;2023-04-26T09:00:55;102040.0;;;9.31;67.99
68376;BME280;55318;52.068;5.188;2023-04-26T09:02:33;102041.0;;;9.33;69.61
68376;BME280;55318;52.068;5.188;2023-04-26T09:04:10;102041.0;;;9.27;71.33
68376;BME280;55318;52.068;5.188;2023-04-26T09:07:29;102038.0;;;9.23;71.22
68376;BME280;55318;52.068;5.188;2023-04-26T09:09:08;102038.0;;;9.32;70.8
68376;BME280;55318;52.068;5.188;2023-04-26T09:10:45;102040.0;;;9.32;70.52
68376;BME280;55318;52.068;5.188;2023-04-26T09:12:22;102038.0;;;9.21;70.3
68376;BME280;55318;52.068;5.188;2023-04-26T09:15:34;102036.0;;;9.39;69.52
68376;BME280;55318;52.068;5.188;2023-04-26T09:17:23;102033.0;;;9.33;68.52
68376;BME280;55318;52.068;5.188;2023-04-26T09:19:01;102031.0;;;9.4;66.19
68376;BME280;55318;52.068;5.188;2023-04-26T09:22:13;102032.0;;;9.72;66.36
68376;BME280;55318;52.068;5.188;2023-04-26T09:25:34;102033.0;;;9.73;66.12
68376;BME280;55318;52.068;5.188;2023-04-26T09:27:10;102041.0;;;9.89;66.52
68376;BME280;55318;52.068;5.188;2023-04-26T09:30:23;102043.0;;;10.26;65.8
68376;BME280;55318;52.068;5.188;2023-04-26T09:32:00;102040.0;;;10.47;62.95
68376;BME280;55318;52.068;5.188;2023-04-26T09:33:56;102042.0;;;10.49;62.48
68376;BME280;55318;52.068;5.188;2023-04-26T09:35:34;102040.0;;;10.6;62.31
68376;BME280;55318;52.068;5.188;2023-04-26T09:38:46;102039.0;;;10.76;61.64
68376;BME280;55318;52.068;5.188;2023-04-26T09:40:22;102037.0;;;11.08;62.11
68376;BME280;55318;52.068;5.188;2023-04-26T09:42:02;102040.0;;;11.27;58.47
68376;BME280;55318;52.068;5.188;2023-04-26T09:45:16;102033.0;;;10.99;57.91
68376;BME280;55318;52.068;5.188;2023-04-26T09:47:01;102039.0;;;11.14;60.97
68376;BME280;55318;52.068;5.188;2023-04-26T09:48:38;102036.0;;;11.08;58.29
68376;BME280;55318;52.068;5.188;2023-04-26T09:50:24;102038.0;;;11.11;56.74
68376;BME280;55318;52.068;5.188;2023-04-26T09:53:41;102034.0;;;10.99;58.32
68376;BME280;55318;52.068;5.188;2023-04-26T09:55:26;102034.0;;;10.97;58.68
68376;BME280;55318;52.068;5.188;2023-04-26T09:57:03;102035.0;;;10.74;59.94
68376;BME280;55318;52.068;5.188;2023-04-26T09:58:54;102035.0;;;10.5;57.49
68376;BME280;55318;52.068;5.188;2023-04-26T10:00:32;102031.0;;;10.54;57.61
68376;BME280;55318;52.068;5.188;2023-04-26T10:03:50;102034.0;;;10.58;60.64
68376;BME280;55318;52.068;5.188;2023-04-26T10:05:27;102032.0;;;10.55;61.59
68376;BME280;55318;52.068;5.188;2023-04-26T10:07:04;102036.0;;;10.7;61.24
68376;BME280;55318;52.068;5.188;2023-04-26T10:10:17;102032.0;;;10.56;60.76
68376;BME280;55318;52.068;5.188;2023-04-26T10:11:55;102030.0;;;10.44;63.14
68376;BME280;55318;52.068;5.188;2023-04-26T10:13:33;102038.0;;;10.45;58.9
68376;BME280;55318;52.068;5.188;2023-04-26T10:15:10;102036.0;;;10.3;59.56
68376;BME280;55318;52.068;5.188;2023-04-26T10:18:24;102035.0;;;10.42;58.26
68376;BME280;55318;52.068;5.188;2023-04-26T10:20:01;102042.0;;;10.39;60.42
68376;BME280;55318;52.068;5.188;2023-04-26T10:21:41;102038.0;;;10.31;61.19
68376;BME280;55318;52.068;5.188;2023-04-26T10:24:57;102041.0;;;10.49;59.68
68376;BME280;55318;52.068;5.188;2023-04-26T10:26:49;102037.0;;;10.33;60.41
68376;BME280;55318;52.068;5.188;2023-04-26T10:28:57;102040.0;;;10.26;61.48
68376;BME280;55318;52.068;5.188;2023-04-26T10:30:53;102037.0;;;10.29;61.67
68376;BME280;55318;52.068;5.188;2023-04-26T10:32:29;102042.0;;;10.36;61.16
68376;BME280;55318;52.068;5.188;2023-04-26T10:34:21;102037.0;;;10.32;61.97
68376;BME280;55318;52.068;5.188;2023-04-26T10:38:21;102043.0;;;10.28;62.71
68376;BME280;55318;52.068;5.188;2023-04-26T10:40:22;102043.0;;;10.18;63.71
68376;BME280;55318;52.068;5.188;2023-04-26T10:42:17;102039.0;;;10.31;62.31
68376;BME280;55318;52.068;5.188;2023-04-26T10:44:39;102044.0;;;10.23;64.19
68376;BME280;55318;52.068;5.188;2023-04-26T10:46:37;102043.0;;;10.34;63.63
68376;BME280;55318;52.068;5.188;2023-04-26T10:48:14;102043.0;;;10.27;63.26
68376;BME280;55318;52.068;5.188;2023-04-26T10:50:05;102047.0;;;10.23;63.46
68376;BME280;55318;52.068;5.188;2023-04-26T10:52:15;102038.0;;;10.09;64.97
68376;BME280;55318;52.068;5.188;2023-04-26T10:53:58;102043.0;;;10.14;64.89
68376;BME280;55318;52.068;5.188;2023-04-26T10:55:37;102042.0;;;10.14;63.95
68376;BME280;55318;52.068;5.188;2023-04-26T10:57:14;102042.0;;;10.14;65.89
68376;BME280;55318;52.068;5.188;2023-04-26T11:01:02;102044.0;;;10.37;62.66
68376;BME280;55318;52.068;5.188;2023-04-26T11:02:43;102042.0;;;10.35;63.18
68376;BME280;55318;52.068;5.188;2023-04-26T11:04:19;102043.0;;;10.23;64.08
68376;BME280;55318;52.068;5.188;2023-04-26T11:05:56;102036.0;;;10.09;62.08
68376;BME280;55318;52.068;5.188;2023-04-26T11:07:36;102036.0;;;10.23;63.15
68376;BME280;55318;52.068;5.188;2023-04-26T11:11:25;102031.0;;;10.34;62.4
68376;BME280;55318;52.068;5.188;2023-04-26T11:13:02;102028.0;;;10.3;63.11
68376;BME280;55318;52.068;5.188;2023-04-26T11:14:39;102030.0;;;10.51;62.17
68376;BME280;55318;52.068;5.188;2023-04-26T11:16:17;102025.0;;;10.48;62.35
68376;BME280;55318;52.068;5.188;2023-04-26T11:17:52;102020.0;;;10.58;59.16
68376;BME280;55318;52.068;5.188;2023-04-26T11:21:05;102016.0;;;10.71;59.89
68376;BME280;55318;52.068;5.188;2023-04-26T11:22:43;102011.0;;;10.66;59.35